Time;durP1;ratioP1;P1;durP2;ratioP2;P2;SDS_P1;SDS_P2;PMS_P1;PMS_P2;Temp;Humidity;BMP_temperature;BMP_pressure;BME280_temperature;BME280_humidity;BME280_pressure;Samples;Min_cycle;Max_cycle;Signal;HPM_P1;HPM_P2
2023/05/02 00:10:07;;;;;;;;;;;;;;;13.44;75.00;101806.56;20762201;28;19983;-55
2023/05/02 00:20:28;;;;;;;;;;;;;;;13.47;73.85;101796.94;20752743;28;19933;-53
2023/05/02 00:30:49;;;;;;;;;;;;;;;13.39;75.51;101798.00;20733543;28;19929;-54
2023/05/02 00:41:11;;;;;;;;;;;;;;;13.27;74.10;101808.72;20755774;28;19991;-55
2023/05/02 00:51:33;;;;;;;;;;;;;;;13.07;75.70;101823.06;20741150;28;19949;-55
2023/05/02 01:02:03;;;;;;;;;;;;;;;12.93;75.43;101825.09;20746358;28;19979;-56
2023/05/02 01:12:27;;;;;;;;;;;;;;;12.75;78.14;101824.69;20742386;28;19972;-55
2023/05/02 01:22:50;;;;;;;;;;;;;;;12.64;79.44;101835.31;20722053;28;20332;-53
2023/05/02 01:33:13;;;;;;;;;;;;;;;12.49;80.01;101851.22;20761182;28;19925;-53
2023/05/02 01:43:36;;;;;;;;;;;;;;;12.30;80.80;101873.28;20753395;28;19952;-54
2023/05/02 01:54:04;;;;;;;;;;;;;;;12.09;82.85;101881.47;20746789;28;20324;-53
2023/05/02 02:04:27;;;;;;;;;;;;;;;11.63;79.95;101911.69;20751955;28;19930;-55
2023/05/02 02:14:55;;;;;;;;;;;;;;;11.44;78.90;101936.19;20742275;28;19925;-55
2023/05/02 02:25:17;;;;;;;;;;;;;;;11.30;80.87;101945.94;20729743;28;20002;-54
2023/05/02 02:35:43;;;;;;;;;;;;;;;11.27;79.21;101964.94;20753777;28;19948;-57
2023/05/02 02:46:15;;;;;;;;;;;;;;;11.09;76.89;101991.13;20752627;28;19929;-54
2023/05/02 02:56:39;;;;;;;;;;;;;;;10.93;76.38;102002.56;20764761;28;19945;-55
2023/05/02 03:07:00;;;;;;;;;;;;;;;10.78;78.72;102029.50;20771460;28;19955;-55
2023/05/02 03:17:22;;;;;;;;;;;;;;;10.61;77.17;102046.94;20754284;28;19983;-55
2023/05/02 03:27:47;;;;;;;;;;;;;;;10.52;76.06;102067.75;20770778;28;19984;-55
2023/05/02 03:38:08;;;;;;;;;;;;;;;10.43;76.39;102083.34;20759804;28;19929;-55
2023/05/02 03:48:30;;;;;;;;;;;;;;;10.34;74.08;102101.56;20742793;28;19956;-55
2023/05/02 03:58:51;;;;;;;;;;;;;;;10.30;73.69;102117.97;20764160;28;19929;-55
2023/05/02 04:09:13;;;;;;;;;;;;;;;10.29;73.20;102139.53;20764000;28;19929;-55
2023/05/02 04:19:34;;;;;;;;;;;;;;;10.29;73.01;102151.63;20756149;28;20293;-55
2023/05/02 04:29:56;;;;;;;;;;;;;;;10.18;72.65;102168.94;20750202;28;19926;-55
2023/05/02 04:40:17;;;;;;;;;;;;;;;10.11;71.76;102183.63;20749381;28;19929;-55
2023/05/02 04:50:39;;;;;;;;;;;;;;;10.04;72.38;102197.44;20756747;28;19929;-55
2023/05/02 05:01:01;;;;;;;;;;;;;;;10.06;71.73;102226.72;20757445;28;19933;-55
2023/05/02 05:11:22;;;;;;;;;;;;;;;9.88;71.84;102237.16;20742599;28;19936;-55
2023/05/02 05:21:43;;;;;;;;;;;;;;;9.84;71.48;102251.84;20758994;28;19970;-55
2023/05/02 05:32:05;;;;;;;;;;;;;;;9.92;71.21;102270.78;20750571;28;19983;-55
2023/05/02 05:42:27;;;;;;;;;;;;;;;9.76;72.24;102294.09;20753564;28;20383;-54
2023/05/02 05:52:48;;;;;;;;;;;;;;;9.71;70.70;102304.44;20752004;28;19949;-54
2023/05/02 06:03:10;;;;;;;;;;;;;;;9.62;69.55;102327.72;20732294;28;20434;-55
2023/05/02 06:13:31;;;;;;;;;;;;;;;9.69;68.83;102356.97;20755308;28;19929;-53
2023/05/02 06:23:53;;;;;;;;;;;;;;;9.68;67.65;102368.19;20768870;28;20331;-54
2023/05/02 06:34:14;;;;;;;;;;;;;;;9.64;67.40;102384.56;20761531;28;19933;-55
2023/05/02 06:44:36;;;;;;;;;;;;;;;9.76;65.00;102410.41;20761485;28;19960;-55
2023/05/02 06:54:57;;;;;;;;;;;;;;;9.92;64.80;102414.69;20743100;28;19925;-55
2023/05/02 07:05:18;;;;;;;;;;;;;;;10.00;61.84;102429.31;20748485;28;19930;-53
2023/05/02 07:15:40;;;;;;;;;;;;;;;9.95;62.64;102438.81;20758520;28;19925;-55
2023/05/02 07:26:01;;;;;;;;;;;;;;;10.03;61.61;102464.66;20749938;28;19933;-55
2023/05/02 07:36:26;;;;;;;;;;;;;;;10.16;61.57;102468.13;20733099;28;19929;-55
2023/05/02 07:46:48;;;;;;;;;;;;;;;10.40;61.25;102466.31;20743475;28;19925;-55
2023/05/02 07:57:11;;;;;;;;;;;;;;;10.61;61.62;102481.81;20754165;28;19932;-54
2023/05/02 08:07:34;;;;;;;;;;;;;;;10.59;60.02;102491.28;20761077;28;19971;-54
2023/05/02 08:17:55;;;;;;;;;;;;;;;10.71;62.93;102498.16;20752290;28;19995;-54
2023/05/02 08:28:17;;;;;;;;;;;;;;;11.01;61.67;102509.25;20745506;28;19980;-55
2023/05/02 08:38:39;;;;;;;;;;;;;;;10.81;59.93;102505.88;20740845;28;19925;-55
2023/05/02 08:49:01;;;;;;;;;;;;;;;10.79;63.66;102527.47;20738212;28;19925;-55
2023/05/02 08:59:22;;;;;;;;;;;;;;;10.76;61.35;102533.53;20735950;28;19948;-55
2023/05/02 09:09:44;;;;;;;;;;;;;;;11.17;59.67;102537.69;20740687;28;20015;-55
2023/05/02 09:20:06;;;;;;;;;;;;;;;11.33;60.42;102540.19;20743578;28;20348;-53
2023/05/02 09:30:27;;;;;;;;;;;;;;;11.38;60.42;102532.38;20743533;28;19929;-53
2023/05/02 09:40:53;;;;;;;;;;;;;;;11.36;61.37;102557.44;20744062;28;19991;-55
2023/05/02 09:51:16;;;;;;;;;;;;;;;11.90;59.29;102562.31;20752507;28;19929;-55
2023/05/02 10:01:37;;;;;;;;;;;;;;;11.85;58.48;102577.03;20731687;28;19933;-55
2023/05/02 10:12:03;;;;;;;;;;;;;;;11.93;59.84;102588.22;20726171;28;19992;-55
2023/05/02 10:22:25;;;;;;;;;;;;;;;11.85;59.09;102590.00;20743253;28;20447;-55
2023/05/02 10:32:48;;;;;;;;;;;;;;;12.26;54.33;102606.13;20741773;28;19926;-54
2023/05/02 10:43:13;;;;;;;;;;;;;;;12.08;58.71;102608.88;20733182;28;20371;-55
2023/05/02 10:53:35;;;;;;;;;;;;;;;11.91;59.64;102621.97;20737642;28;20400;-55
2023/05/02 11:03:58;;;;;;;;;;;;;;;11.84;60.48;102640.16;20753433;28;19979;-55
2023/05/02 11:14:40;;;;;;;;;;;;;;;11.68;60.96;102643.72;20754957;28;19932;-56
2023/05/02 11:25:02;;;;;;;;;;;;;;;11.84;60.06;102640.16;20746823;28;20017;-55
2023/05/02 11:35:30;;;;;;;;;;;;;;;12.22;59.56;102629.50;20749381;28;19929;-56
2023/05/02 11:45:52;;;;;;;;;;;;;;;12.18;57.70;102652.03;20746319;28;20293;-55
2023/05/02 11:56:13;;;;;;;;;;;;;;;12.12;59.36;102659.88;20743146;28;19929;-54
2023/05/02 12:06:35;;;;;;;;;;;;;;;12.24;59.88;102654.59;20750405;28;20456;-56
2023/05/02 12:16:57;;;;;;;;;;;;;;;11.93;60.94;102679.03;20738042;28;19936;-55
2023/05/02 12:27:18;;;;;;;;;;;;;;;11.68;62.97;102703.38;20746296;28;20756;-54
2023/05/02 12:37:40;;;;;;;;;;;;;;;11.75;63.00;102695.56;20729352;28;20328;-55
2023/05/02 12:48:16;;;;;;;;;;;;;;;12.20;59.93;102707.38;20757588;28;19929;-56
2023/05/02 12:58:40;;;;;;;;;;;;;;;12.29;59.50;102706.47;20752636;28;19993;-53
2023/05/02 13:09:02;;;;;;;;;;;;;;;12.19;60.32;102710.88;20731554;28;19941;-55
2023/05/02 13:19:23;;;;;;;;;;;;;;;12.18;60.94;102726.47;20749708;28;20284;-56
2023/05/02 13:29:45;;;;;;;;;;;;;;;12.14;61.08;102738.59;20734367;28;19933;-56
2023/05/02 13:40:07;;;;;;;;;;;;;;;12.07;60.40;102748.13;20738270;28;19980;-54
2023/05/02 13:50:28;;;;;;;;;;;;;;;12.09;61.85;102741.19;20750536;28;19932;-55
2023/05/02 14:00:50;;;;;;;;;;;;;;;12.28;62.36;102757.53;20746247;28;19933;-55
2023/05/02 14:11:11;;;;;;;;;;;;;;;12.34;60.18;102757.50;20747058;28;19925;-57
2023/05/02 14:21:32;;;;;;;;;;;;;;;12.21;59.40;102770.56;20743752;28;19929;-55
2023/05/02 14:31:54;;;;;;;;;;;;;;;12.05;61.40;102785.31;20740118;28;20031;-55
2023/05/02 14:42:15;;;;;;;;;;;;;;;12.14;61.34;102800.88;20758708;28;19931;-55
2023/05/02 14:52:37;;;;;;;;;;;;;;;12.35;61.28;102789.50;20755064;28;20340;-56
2023/05/02 15:02:58;;;;;;;;;;;;;;;12.52;59.31;102785.94;20752621;28;19925;-55
2023/05/02 15:13:20;;;;;;;;;;;;;;;12.42;59.58;102792.06;20743479;28;20027;-55
2023/05/02 15:23:41;;;;;;;;;;;;;;;12.20;59.17;102795.63;20760793;28;19941;-54
2023/05/02 15:34:03;;;;;;;;;;;;;;;12.26;59.73;102806.00;20744086;28;20392;-55
2023/05/02 15:44:25;;;;;;;;;;;;;;;12.35;61.51;102808.53;20726567;28;19929;-54
2023/05/02 15:54:46;;;;;;;;;;;;;;;12.15;61.06;102815.56;20737802;28;19925;-55
2023/05/02 16:05:08;;;;;;;;;;;;;;;12.22;60.01;102818.97;20734293;28;19933;-54
2023/05/02 16:15:29;;;;;;;;;;;;;;;12.12;59.79;102833.75;20742151;28;19932;-55
2023/05/02 16:25:57;;;;;;;;;;;;;;;12.04;58.19;102835.50;20760375;28;19976;-58
2023/05/02 16:36:19;;;;;;;;;;;;;;;12.29;57.99;102823.31;20673034;28;19972;-55
2023/05/02 16:46:41;;;;;;;;;;;;;;;12.53;57.76;102826.59;20726481;28;19936;-55
2023/05/02 16:57:02;;;;;;;;;;;;;;;12.59;58.44;102842.16;20740645;28;20016;-55
2023/05/02 17:07:24;;;;;;;;;;;;;;;12.27;59.05;102844.03;20743682;28;19929;-55
2023/05/02 17:17:45;;;;;;;;;;;;;;;11.86;59.35;102871.88;20752282;28;19937;-56
2023/05/02 17:28:07;;;;;;;;;;;;;;;11.84;61.12;102878.81;20736715;28;19937;-54
2023/05/02 17:38:30;;;;;;;;;;;;;;;11.75;61.23;102868.44;20740080;28;21622;-55
2023/05/02 17:48:51;;;;;;;;;;;;;;;11.61;60.67;102875.38;20725541;28;19987;-55
2023/05/02 18:10:20;;;;;;;;;;;;;;;11.29;60.52;102895.25;20744406;28;19944;-56
2023/05/02 18:20:42;;;;;;;;;;;;;;;11.19;61.09;102904.72;20753239;28;19929;-54
2023/05/02 18:31:03;;;;;;;;;;;;;;;11.05;61.13;102909.91;20757027;28;19929;-56
2023/05/02 18:41:25;;;;;;;;;;;;;;;10.89;62.01;102931.47;20752795;28;19933;-56
2023/05/02 18:51:46;;;;;;;;;;;;;;;10.74;61.85;102936.59;20770293;28;20480;-54
2023/05/02 19:02:08;;;;;;;;;;;;;;;10.53;62.67;102941.69;20733119;28;19937;-55
2023/05/02 19:12:29;;;;;;;;;;;;;;;10.37;64.26;102947.66;20712056;28;19933;-55
2023/05/02 19:22:51;;;;;;;;;;;;;;;10.33;64.94;102956.25;20753132;28;19977;-56
2023/05/02 19:33:23;;;;;;;;;;;;;;;10.22;65.46;102968.25;20758520;28;19955;-55
2023/05/02 19:43:44;;;;;;;;;;;;;;;10.17;65.84;102969.97;20751152;28;20530;-56
2023/05/02 19:54:06;;;;;;;;;;;;;;;10.09;66.60;102963.88;20749306;28;19932;-54
2023/05/02 20:04:27;;;;;;;;;;;;;;;9.93;66.32;102974.94;20749042;28;19929;-56
2023/05/02 20:14:49;;;;;;;;;;;;;;;9.79;66.66;102984.31;20740127;28;20292;-55
2023/05/02 20:25:10;;;;;;;;;;;;;;;9.73;66.79;102994.59;20754059;28;20023;-54
2023/05/02 20:35:32;;;;;;;;;;;;;;;9.62;66.97;103003.97;20728726;28;19953;-56
2023/05/02 20:45:54;;;;;;;;;;;;;;;9.47;67.17;103009.88;20744579;28;19929;-56
2023/05/02 20:56:16;;;;;;;;;;;;;;;9.31;67.61;102997.66;20733418;28;20005;-55
2023/05/02 21:06:37;;;;;;;;;;;;;;;9.29;67.24;103006.25;20746629;28;19955;-55
2023/05/02 21:16:59;;;;;;;;;;;;;;;9.19;67.86;103019.91;20720275;28;20012;-56
2023/05/02 21:27:21;;;;;;;;;;;;;;;9.10;67.44;103021.53;20755263;28;19928;-55
2023/05/02 21:37:43;;;;;;;;;;;;;;;9.10;68.14;103020.69;20725981;28;19983;-56
2023/05/02 21:48:04;;;;;;;;;;;;;;;9.13;67.00;103023.31;20734474;28;20023;-55
2023/05/02 21:58:27;;;;;;;;;;;;;;;9.06;66.96;103017.19;20723093;28;19944;-55
2023/05/02 22:08:48;;;;;;;;;;;;;;;8.97;66.89;103022.25;20728783;28;19930;-54
2023/05/02 22:19:10;;;;;;;;;;;;;;;8.86;67.42;103023.00;20721962;28;20356;-55
2023/05/02 22:29:32;;;;;;;;;;;;;;;8.79;68.33;103027.19;20743076;28;19953;-55
2023/05/02 22:39:53;;;;;;;;;;;;;;;8.70;67.95;103026.19;20740449;28;20067;-56
2023/05/02 22:50:14;;;;;;;;;;;;;;;8.68;67.84;103027.91;20731150;28;19977;-54
2023/05/02 23:00:36;;;;;;;;;;;;;;;8.73;67.49;103037.47;20730553;28;19929;-55
2023/05/02 23:10:57;;;;;;;;;;;;;;;8.77;67.25;103043.53;20744474;28;19955;-55
2023/05/02 23:21:19;;;;;;;;;;;;;;;8.69;66.81;103042.53;20736649;28;19933;-56
2023/05/02 23:31:40;;;;;;;;;;;;;;;8.67;67.46;103031.31;20729269;28;19929;-54
2023/05/02 23:42:02;;;;;;;;;;;;;;;8.67;68.38;103033.91;20693321;28;20425;-56
2023/05/02 23:52:24;;;;;;;;;;;;;;;8.66;69.95;103040.78;20698261;28;20121;-56
